Virginia Beach, VA (23451)

1:50 PM EDT on August 31, 2015 (GMT -0400)
Cape Henry Collegiate | | Change Station
CLOSE
Current Station
Personal Weather Station
Location: Virginia Beach, VA
Elevation: 33 ft
Nearby Weather Stations

Elev 33 ft 36.88 °N, 76.03 °W | Updated 2 minutes ago

Light Rain
Light Rain
74.5 °F
Feels Like 74 °F
N
3.2
Wind Variable Wind from South

Today
High -- | Low -- °F
--% Chance of Precip.
Yesterday
High -- | Low -- °F
Precip. -- in
6:33 AM 7:34 PM
Waning Gibbous, 94% visible
Pressure 30.13 in
Visibility 6.0 miles
Clouds Overcast 10000 ft
Heat Index 74 °F
Dew Point 70 °F
Humidity 87%
Rainfall in
Snow Depth Not available.
UV 3 out of 12
Pollen 8.10 out of 12
Air Quality Not available.
Flu Activity Not available.
METAR KNTU 311656Z 19005KT 6SM -RA OVC100 24/21 A3012 RMK AO2 SLP203 P0007 T02390211
Pressure 30.13 in
Visibility 6.0 miles
Clouds Overcast 10000 ft
Heat Index 74 °F
Dew Point 70 °F
Humidity 87%
Rainfall in
Snow Depth Not available.
UV 3 out of 12
Pollen 8.10 out of 12
Air Quality Not available.
Flu Activity Not available.
METAR KNTU 311656Z 19005KT 6SM -RA OVC100 24/21 A3012 RMK AO2 SLP203 P0007 T02390211

10-Day Weather Forecast

×

Almanac

Astronomy

Aug. 31, 2015 Rise Set
Actual Time
Civil Twilight
Nautical Twilight
Astronomical Twilight
Moon
Length of Visible Light
Length of Day
Tomorrow will be .
, % of the Moon is Illuminated

Today's Extremes

State Highs State Lows

Community

WunderPhotos

Upload Photos

1,851,328 photos uploaded!

WunderBlogs® & News

Nearby

Air Quality

  Air Quality AQ Index Pollutant
Not available.

Snow Depth

Station Depth Elevation

Earthquake Activity

City Distance Mag. Time & Date
Minimum magnitude displayed is 2.5.

Coastal Water Temperatures

Place Temperature

Stations

Nearby Weather Stations

Station Location Temp. Windchill Dew Point Humidity Wind Precip. Elev Updated Type